Time,TemperatureF,DewpointF,PressureIn,WindDirection,WindDirectionDegrees,WindSpeedMPH,WindSpeedGustMPH,Humidity,HourlyPrecipIn,Conditions,Clouds,dailyrainin,SolarRadiationWatts/m^2,SoftwareType,DateUTC
2013-01-13 00:02:00,29.0,29.0,-100.00,NW,307,4.0,6.0,98,0.00,,,0.00,0.000000,,2013-01-13 08:02:00,
2013-01-13 00:11:00,29.0,29.0,-100.00,NW,307,4.0,6.0,98,0.00,,,0.00,0.000000,,2013-01-13 08:11:00,
2013-01-13 00:32:00,29.0,28.0,-100.00,NW,319,4.0,7.0,97,0.00,,,0.00,0.000000,,2013-01-13 08:32:00,
2013-01-13 00:42:00,29.0,28.0,-100.00,NW,319,4.0,7.0,97,0.00,,,0.00,0.000000,,2013-01-13 08:42:00,
2013-01-13 00:52:00,29.0,28.0,-100.00,NW,319,4.0,7.0,97,0.00,,,0.00,0.000000,,2013-01-13 08:52:00,
2013-01-13 01:02:00,29.0,28.0,-100.00,NW,319,4.0,7.0,97,0.00,,,0.00,0.000000,,2013-01-13 09:02:00,
2013-01-13 01:11:00,29.0,28.0,-100.00,NW,319,4.0,7.0,97,0.00,,,0.00,0.000000,,2013-01-13 09:11:00,
2013-01-13 01:32:00,28.0,27.0,-100.00,West,276,2.0,5.0,95,0.00,,,0.00,0.000000,,2013-01-13 09:32:00,
2013-01-13 01:42:00,28.0,27.0,-100.00,West,276,2.0,5.0,95,0.00,,,0.00,0.000000,,2013-01-13 09:42:00,
2013-01-13 01:52:00,28.0,27.0,-100.00,West,276,2.0,5.0,95,0.00,,,0.00,0.000000,,2013-01-13 09:52:00,
2013-01-13 02:02:00,28.0,27.0,-100.00,West,276,2.0,5.0,95,0.00,,,0.00,0.000000,,2013-01-13 10:02:00,
2013-01-13 02:11:00,28.0,27.0,-100.00,West,276,2.0,5.0,95,0.00,,,0.00,0.000000,,2013-01-13 10:11:00,
2013-01-13 02:32:00,28.0,27.0,-100.00,SW,231,1.0,4.0,94,0.00,,,0.00,0.000000,,2013-01-13 10:32:00,
2013-01-13 02:42:00,28.0,27.0,-100.00,SW,231,1.0,4.0,94,0.00,,,0.00,0.000000,,2013-01-13 10:42:00,
2013-01-13 02:52:00,28.0,27.0,-100.00,SW,231,1.0,4.0,94,0.00,,,0.00,0.000000,,2013-01-13 10:52:00,
2013-01-13 03:02:00,28.0,27.0,-100.00,SW,231,1.0,4.0,94,0.00,,,0.00,0.000000,,2013-01-13 11:02:00,
2013-01-13 03:11:00,28.0,27.0,-100.00,SW,231,1.0,4.0,94,0.00,,,0.00,0.000000,,2013-01-13 11:11:00,
2013-01-13 03:33:00,28.0,27.0,-100.00,SE,142,2.0,3.0,94,0.00,,,0.00,0.000000,,2013-01-13 11:33:00,
2013-01-13 03:42:00,28.0,27.0,-100.00,SE,142,2.0,3.0,94,0.00,,,0.00,0.000000,,2013-01-13 11:42:00,
2013-01-13 03:52:00,28.0,27.0,-100.00,SE,142,2.0,3.0,94,0.00,,,0.00,0.000000,,2013-01-13 11:52:00,
2013-01-13 04:02:00,28.0,27.0,-100.00,SE,142,2.0,3.0,94,0.00,,,0.00,0.000000,,2013-01-13 12:02:00,
2013-01-13 04:11:00,28.0,27.0,-100.00,SE,142,2.0,3.0,94,0.00,,,0.00,0.000000,,2013-01-13 12:11:00,
2013-01-13 04:33:00,28.0,27.0,-100.00,SE,139,3.0,5.0,94,0.00,,,0.00,0.000000,,2013-01-13 12:33:00,
2013-01-13 04:42:00,28.0,27.0,-100.00,SE,139,3.0,5.0,94,0.00,,,0.00,0.000000,,2013-01-13 12:42:00,
2013-01-13 04:53:00,28.0,27.0,-100.00,SE,139,3.0,5.0,94,0.00,,,0.00,0.000000,,2013-01-13 12:53:00,
2013-01-13 05:02:00,28.0,27.0,-100.00,SE,139,3.0,5.0,94,0.00,,,0.00,0.000000,,2013-01-13 13:02:00,
2013-01-13 05:11:00,28.0,27.0,-100.00,SE,139,3.0,5.0,94,0.00,,,0.00,0.000000,,2013-01-13 13:11:00,
2013-01-13 05:33:00,27.0,25.0,-100.00,South,173,0.0,4.0,92,0.00,,,0.00,0.000000,,2013-01-13 13:33:00,
2013-01-13 05:43:00,27.0,25.0,-100.00,South,173,0.0,4.0,92,0.00,,,0.00,0.000000,,2013-01-13 13:43:00,
2013-01-13 05:53:00,27.0,25.0,-100.00,South,173,0.0,4.0,92,0.00,,,0.00,0.000000,,2013-01-13 13:53:00,
2013-01-13 06:02:00,27.0,25.0,-100.00,South,173,0.0,4.0,92,0.00,,,0.00,0.000000,,2013-01-13 14:02:00,
2013-01-13 06:12:00,27.0,25.0,-100.00,South,173,0.0,4.0,92,0.00,,,0.00,0.000000,,2013-01-13 14:12:00,
2013-01-13 06:33:00,27.0,26.0,-100.00,WSW,255,2.0,5.0,94,0.00,,,0.00,0.000000,,2013-01-13 14:33:00,
2013-01-13 06:43:00,27.0,26.0,-100.00,WSW,255,2.0,5.0,94,0.00,,,0.00,0.000000,,2013-01-13 14:43:00,
2013-01-13 06:53:00,27.0,26.0,-100.00,WSW,255,2.0,5.0,94,0.00,,,0.00,0.000000,,2013-01-13 14:53:00,
2013-01-13 07:02:00,27.0,26.0,-100.00,WSW,255,2.0,5.0,94,0.00,,,0.00,0.000000,,2013-01-13 15:02:00,
2013-01-13 07:12:00,27.0,26.0,-100.00,WSW,255,2.0,5.0,94,0.00,,,0.00,0.000000,,2013-01-13 15:12:00,
2013-01-13 07:33:00,26.0,23.0,-100.00,SE,145,2.0,2.0,89,0.00,,,0.00,0.000000,,2013-01-13 15:33:00,
2013-01-13 07:43:00,26.0,23.0,-100.00,SE,145,2.0,2.0,89,0.00,,,0.00,0.000000,,2013-01-13 15:43:00,
2013-01-13 07:53:00,26.0,23.0,-100.00,SE,145,2.0,2.0,89,0.00,,,0.00,0.000000,,2013-01-13 15:53:00,
2013-01-13 08:03:00,26.0,23.0,-100.00,SE,145,2.0,2.0,89,0.00,,,0.00,0.000000,,2013-01-13 16:03:00,
2013-01-13 08:12:00,26.0,23.0,-100.00,SE,145,2.0,2.0,89,0.00,,,0.00,0.000000,,2013-01-13 16:12:00,
2013-01-13 08:33:00,27.0,24.0,-100.00,West,278,2.0,2.0,89,0.00,,,0.00,6.000000,,2013-01-13 16:33:00,
2013-01-13 08:43:00,27.0,24.0,-100.00,West,278,2.0,2.0,89,0.00,,,0.00,6.000000,,2013-01-13 16:43:00,
2013-01-13 08:53:00,27.0,24.0,-100.00,West,278,2.0,2.0,89,0.00,,,0.00,6.000000,,2013-01-13 16:53:00,
2013-01-13 09:03:00,27.0,24.0,-100.00,West,278,2.0,2.0,89,0.00,,,0.00,6.000000,,2013-01-13 17:03:00,
2013-01-13 09:12:00,27.0,24.0,-100.00,West,278,2.0,2.0,89,0.00,,,0.00,6.000000,,2013-01-13 17:12:00,
2013-01-13 09:33:00,31.0,28.0,-100.00,SSE,147,2.0,4.0,87,0.00,,,0.00,108.000000,,2013-01-13 17:33:00,
2013-01-13 09:43:00,31.0,28.0,-100.00,SSE,147,2.0,4.0,87,0.00,,,0.00,108.000000,,2013-01-13 17:43:00,
2013-01-13 09:53:00,31.0,28.0,-100.00,SSE,147,2.0,4.0,87,0.00,,,0.00,108.000000,,2013-01-13 17:53:00,
2013-01-13 10:02:00,31.0,28.0,-100.00,SSE,147,2.0,4.0,87,0.00,,,0.00,108.000000,,2013-01-13 18:02:00,
2013-01-13 10:12:00,31.0,28.0,-100.00,SSE,147,2.0,4.0,87,0.00,,,0.00,108.000000,,2013-01-13 18:12:00,
2013-01-13 10:33:00,33.0,27.0,-100.00,SE,131,3.0,5.0,78,0.00,,,0.00,255.000000,,2013-01-13 18:33:00,
2013-01-13 10:43:00,33.0,27.0,-100.00,SE,131,3.0,5.0,78,0.00,,,0.00,255.000000,,2013-01-13 18:43:00,
2013-01-13 10:53:00,33.0,27.0,-100.00,SE,131,3.0,5.0,78,0.00,,,0.00,255.000000,,2013-01-13 18:53:00,
2013-01-13 11:02:00,33.0,27.0,-100.00,SE,131,3.0,5.0,78,0.00,,,0.00,255.000000,,2013-01-13 19:02:00,
2013-01-13 11:11:00,33.0,27.0,-100.00,SE,131,3.0,5.0,78,0.00,,,0.00,255.000000,,2013-01-13 19:11:00,
2013-01-13 11:43:00,35.0,27.0,-100.00,East,85,4.0,7.0,73,0.00,,,0.00,368.000000,,2013-01-13 19:43:00,
2013-01-13 11:53:00,35.0,27.0,-100.00,East,85,4.0,7.0,73,0.00,,,0.00,368.000000,,2013-01-13 19:53:00,
2013-01-13 12:02:00,35.0,27.0,-100.00,East,85,4.0,7.0,73,0.00,,,0.00,368.000000,,2013-01-13 20:02:00,
2013-01-13 12:12:00,35.0,27.0,-100.00,East,85,4.0,7.0,73,0.00,,,0.00,368.000000,,2013-01-13 20:12:00,
2013-01-13 12:33:00,37.0,29.0,-100.00,NNE,19,3.0,8.0,73,0.00,,,0.00,433.000000,,2013-01-13 20:33:00,
2013-01-13 12:43:00,37.0,29.0,-100.00,NNE,19,3.0,8.0,73,0.00,,,0.00,433.000000,,2013-01-13 20:43:00,
2013-01-13 12:53:00,37.0,29.0,-100.00,NNE,19,3.0,8.0,73,0.00,,,0.00,433.000000,,2013-01-13 20:53:00,
2013-01-13 13:02:00,37.0,29.0,-100.00,NNE,19,3.0,8.0,73,0.00,,,0.00,433.000000,,2013-01-13 21:02:00,
2013-01-13 13:12:00,37.0,29.0,-100.00,NNE,19,3.0,8.0,73,0.00,,,0.00,433.000000,,2013-01-13 21:12:00,
2013-01-13 13:33:00,38.0,29.0,-100.00,NNE,28,4.0,9.0,69,0.00,,,0.00,453.000000,,2013-01-13 21:33:00,
2013-01-13 13:43:00,38.0,29.0,-100.00,NNE,28,4.0,9.0,69,0.00,,,0.00,453.000000,,2013-01-13 21:43:00,
2013-01-13 13:53:00,38.0,29.0,-100.00,NNE,28,4.0,9.0,69,0.00,,,0.00,453.000000,,2013-01-13 21:53:00,
2013-01-13 14:02:00,38.0,29.0,-100.00,NNE,28,4.0,9.0,69,0.00,,,0.00,453.000000,,2013-01-13 22:02:00,
2013-01-13 14:12:00,38.0,29.0,-100.00,NNE,28,4.0,9.0,69,0.00,,,0.00,453.000000,,2013-01-13 22:12:00,
2013-01-13 15:33:00,38.0,28.0,-100.00,North,9,4.0,10.0,68,-99.99,,,-99.99,292.000000,,2013-01-13 23:33:00,
2013-01-13 15:43:00,38.0,28.0,-100.00,North,9,4.0,10.0,68,-99.99,,,-99.99,292.000000,,2013-01-13 23:43:00,
2013-01-13 15:53:00,38.0,28.0,-100.00,North,9,4.0,10.0,68,-99.99,,,-99.99,292.000000,,2013-01-13 23:53:00,
2013-01-13 16:02:00,38.0,28.0,-100.00,North,9,4.0,10.0,68,-99.99,,,-99.99,292.000000,,2013-01-14 00:02:00,
2013-01-13 16:12:00,38.0,28.0,-100.00,North,9,4.0,10.0,68,-99.99,,,-99.99,292.000000,,2013-01-14 00:12:00,
2013-01-13 16:43:00,37.0,28.0,-100.00,NNW,341,5.0,11.0,71,0.00,,,0.00,140.000000,,2013-01-14 00:43:00,
2013-01-13 16:53:00,37.0,28.0,-100.00,NNW,341,5.0,11.0,71,0.00,,,0.00,140.000000,,2013-01-14 00:53:00,
2013-01-13 17:02:00,37.0,28.0,-100.00,NNW,341,5.0,11.0,71,0.00,,,0.00,140.000000,,2013-01-14 01:02:00,
2013-01-13 17:12:00,37.0,28.0,-100.00,NNW,341,5.0,11.0,71,0.00,,,0.00,140.000000,,2013-01-14 01:12:00,
2013-01-13 17:42:00,34.0,27.0,-100.00,NNW,338,6.0,10.0,75,0.00,,,0.00,27.000000,,2013-01-14 01:42:00,
2013-01-13 17:52:00,34.0,27.0,-100.00,NNW,338,6.0,10.0,75,0.00,,,0.00,27.000000,,2013-01-14 01:52:00,
2013-01-13 18:02:00,34.0,27.0,-100.00,NNW,338,6.0,10.0,75,0.00,,,0.00,27.000000,,2013-01-14 02:02:00,
2013-01-13 18:12:00,34.0,27.0,-100.00,NNW,338,6.0,10.0,75,0.00,,,0.00,27.000000,,2013-01-14 02:12:00,
2013-01-13 18:43:00,33.0,27.0,-100.00,NNW,332,6.0,9.0,79,0.00,,,0.00,1.000000,,2013-01-14 02:43:00,
2013-01-13 18:53:00,33.0,27.0,-100.00,NNW,332,6.0,9.0,79,0.00,,,0.00,1.000000,,2013-01-14 02:53:00,
2013-01-13 19:02:00,33.0,27.0,-100.00,NNW,332,6.0,9.0,79,0.00,,,0.00,1.000000,,2013-01-14 03:02:00,
2013-01-13 19:12:00,33.0,27.0,-100.00,NNW,332,6.0,9.0,79,0.00,,,0.00,1.000000,,2013-01-14 03:12:00,
2013-01-13 19:33:00,32.0,26.0,-100.00,NNW,346,4.0,9.0,79,0.00,,,0.00,0.000000,,2013-01-14 03:33:00,
2013-01-13 19:43:00,32.0,26.0,-100.00,NNW,346,4.0,9.0,79,0.00,,,0.00,0.000000,,2013-01-14 03:43:00,
2013-01-13 19:53:00,32.0,26.0,-100.00,NNW,346,4.0,9.0,79,0.00,,,0.00,0.000000,,2013-01-14 03:53:00,
2013-01-13 20:02:00,32.0,26.0,-100.00,NNW,346,4.0,9.0,79,0.00,,,0.00,0.000000,,2013-01-14 04:02:00,
2013-01-13 20:12:00,32.0,26.0,-100.00,NNW,346,4.0,9.0,79,0.00,,,0.00,0.000000,,2013-01-14 04:12:00,
2013-01-13 20:32:00,31.0,26.0,-100.00,North,10,2.0,7.0,83,0.00,,,0.00,0.000000,,2013-01-14 04:32:00,
2013-01-13 20:42:00,31.0,26.0,-100.00,North,10,2.0,7.0,83,0.00,,,0.00,0.000000,,2013-01-14 04:42:00,
2013-01-13 20:53:00,31.0,26.0,-100.00,North,10,2.0,7.0,83,0.00,,,0.00,0.000000,,2013-01-14 04:53:00,
2013-01-13 21:03:00,31.0,26.0,-100.00,North,10,2.0,7.0,83,0.00,,,0.00,0.000000,,2013-01-14 05:03:00,
2013-01-13 21:12:00,31.0,26.0,-100.00,North,10,2.0,7.0,83,0.00,,,0.00,0.000000,,2013-01-14 05:12:00,
2013-01-13 21:33:00,30.0,27.0,-100.00,NNE,13,1.0,3.0,89,0.00,,,0.00,0.000000,,2013-01-14 05:33:00,
2013-01-13 21:43:00,30.0,27.0,-100.00,NNE,13,1.0,3.0,89,0.00,,,0.00,0.000000,,2013-01-14 05:43:00,
2013-01-13 21:53:00,30.0,27.0,-100.00,NNE,13,1.0,3.0,89,0.00,,,0.00,0.000000,,2013-01-14 05:53:00,
2013-01-13 22:02:00,30.0,27.0,-100.00,NNE,13,1.0,3.0,89,0.00,,,0.00,0.000000,,2013-01-14 06:02:00,
2013-01-13 22:11:00,30.0,27.0,-100.00,NNE,13,1.0,3.0,89,0.00,,,0.00,0.000000,,2013-01-14 06:11:00,
2013-01-13 22:33:00,29.0,27.0,-100.00,ENE,78,3.0,4.0,91,0.00,,,0.00,0.000000,,2013-01-14 06:33:00,
2013-01-13 22:43:00,29.0,27.0,-100.00,ENE,78,3.0,4.0,91,0.00,,,0.00,0.000000,,2013-01-14 06:43:00,
2013-01-13 22:52:00,29.0,27.0,-100.00,ENE,78,3.0,4.0,91,0.00,,,0.00,0.000000,,2013-01-14 06:52:00,
2013-01-13 23:02:00,29.0,27.0,-100.00,ENE,78,3.0,4.0,91,0.00,,,0.00,0.000000,,2013-01-14 07:02:00,
2013-01-13 23:11:00,29.0,27.0,-100.00,ENE,78,3.0,4.0,91,0.00,,,0.00,0.000000,,2013-01-14 07:11:00,
2013-01-13 23:33:00,28.0,26.0,-100.00,NW,305,1.0,4.0,92,0.00,,,0.00,0.000000,,2013-01-14 07:33:00,
2013-01-13 23:43:00,28.0,26.0,-100.00,NW,305,1.0,4.0,92,0.00,,,0.00,0.000000,,2013-01-14 07:43:00,
2013-01-13 23:52:00,28.0,26.0,-100.00,NW,305,1.0,4.0,92,0.00,,,0.00,0.000000,,2013-01-14 07:52:00,